Time;durP1;ratioP1;P1;durP2;ratioP2;P2;SDS_P1;SDS_P2;PMS_P1;PMS_P2;Temp;Humidity;BMP_temperature;BMP_pressure;BME280_temperature;BME280_humidity;BME280_pressure;Samples;Min_cycle;Max_cycle;Signal;HPM_P1;HPM_P2
2022/10/21 00:00:27;;;;;;;44.58;17.52;;;;;;;;;;6289367;28;20052;-62
2022/10/21 00:03:48;;;;;;;40.90;15.68;;;;;;;;;;6295810;28;20048;-62
2022/10/21 00:06:48;;;;;;;43.88;16.20;;;;;;;;;;6287761;28;20044;-60
2022/10/21 00:09:49;;;;;;;44.13;16.50;;;;;;;;;;6289795;28;20135;-60
2022/10/21 00:12:49;;;;;;;49.47;18.23;;;;;;;;;;6287902;28;20061;-60
2022/10/21 00:16:06;;;;;;;46.80;18.60;;;;;;;;;;6285283;28;20079;-62
2022/10/21 00:19:06;;;;;;;50.65;19.52;;;;;;;;;;6283911;28;20044;-62
2022/10/21 00:22:07;;;;;;;55.17;19.40;;;;;;;;;;6286396;28;20101;-62
2022/10/21 00:25:08;;;;;;;50.03;19.20;;;;;;;;;;6288471;28;20121;-61
2022/10/21 00:28:09;;;;;;;45.53;17.83;;;;;;;;;;6289842;28;20463;-62
2022/10/21 00:31:11;;;;;;;48.03;18.38;;;;;;;;;;6289069;28;20055;-62
2022/10/21 00:34:12;;;;;;;42.30;17.17;;;;;;;;;;6287348;28;20477;-62
2022/10/21 00:37:14;;;;;;;44.70;18.35;;;;;;;;;;6292177;28;20052;-60
2022/10/21 00:40:14;;;;;;;49.45;17.75;;;;;;;;;;6286434;28;20399;-60
2022/10/21 00:43:16;;;;;;;47.83;18.88;;;;;;;;;;6291645;28;20056;-62
2022/10/21 00:46:17;;;;;;;54.17;19.60;;;;;;;;;;6290833;28;20151;-60
2022/10/21 00:49:26;;;;;;;51.63;19.73;;;;;;;;;;6289292;28;20066;-62
2022/10/21 00:52:30;;;;;;;55.90;19.90;;;;;;;;;;6293063;28;20548;-60
2022/10/21 00:55:38;;;;;;;56.28;20.92;;;;;;;;;;6287250;28;20052;-62
2022/10/21 00:58:38;;;;;;;51.17;19.40;;;;;;;;;;6286620;28;20044;-62
2022/10/21 01:01:39;;;;;;;46.53;18.42;;;;;;;;;;6286090;28;21103;-63
2022/10/21 01:04:39;;;;;;;45.92;19.42;;;;;;;;;;6285348;28;21333;-62
2022/10/21 01:07:40;;;;;;;53.40;19.95;;;;;;;;;;6284326;28;20490;-63
2022/10/21 01:10:41;;;;;;;46.63;18.83;;;;;;;;;;6287450;28;20139;-62
2022/10/21 01:14:09;;;;;;;54.38;19.45;;;;;;;;;;6286739;28;20403;-60
2022/10/21 01:17:15;;;;;;;48.75;18.60;;;;;;;;;;6283645;28;20135;-62
2022/10/21 01:20:57;;;;;;;54.90;20.25;;;;;;;;;;6283247;28;20055;-60
2022/10/21 01:24:22;;;;;;;59.40;20.15;;;;;;;;;;6283743;28;20511;-60
2022/10/21 01:27:41;;;;;;;54.40;21.20;;;;;;;;;;6287216;28;20044;-60
2022/10/21 01:30:48;;;;;;;52.55;20.45;;;;;;;;;;6287413;28;20571;-61
2022/10/21 01:34:22;;;;;;;54.47;20.60;;;;;;;;;;6286556;28;20040;-61
2022/10/21 01:37:31;;;;;;;56.97;20.80;;;;;;;;;;6289174;28;20063;-61
2022/10/21 01:40:53;;;;;;;52.95;21.02;;;;;;;;;;6288341;28;20059;-61
2022/10/21 01:44:14;;;;;;;56.67;21.13;;;;;;;;;;6285163;28;20173;-61
2022/10/21 01:47:30;;;;;;;51.13;20.10;;;;;;;;;;6288417;28;20051;-61
2022/10/21 01:50:37;;;;;;;48.03;18.70;;;;;;;;;;6288897;28;20135;-62
2022/10/21 01:53:50;;;;;;;56.65;19.42;;;;;;;;;;6284673;28;20051;-61
2022/10/21 01:56:52;;;;;;;60.85;19.30;;;;;;;;;;6293301;28;20062;-61
2022/10/21 01:59:53;;;;;;;51.83;18.55;;;;;;;;;;6288140;28;20052;-61
2022/10/21 02:02:56;;;;;;;51.50;19.48;;;;;;;;;;6284650;28;20147;-61
2022/10/21 02:05:57;;;;;;;52.25;18.98;;;;;;;;;;6285774;28;20086;-61
2022/10/21 02:08:57;;;;;;;52.95;19.02;;;;;;;;;;6287180;28;20547;-61
2022/10/21 02:12:01;;;;;;;48.75;18.48;;;;;;;;;;6283156;28;20058;-61
2022/10/21 02:15:06;;;;;;;56.25;20.70;;;;;;;;;;6284818;28;20148;-61
2022/10/21 02:18:16;;;;;;;48.00;18.48;;;;;;;;;;6286723;28;20048;-61
2022/10/21 02:21:20;;;;;;;54.97;22.42;;;;;;;;;;6282454;28;20103;-61
2022/10/21 02:24:36;;;;;;;54.30;20.30;;;;;;;;;;6285531;28;20049;-61
2022/10/21 02:27:37;;;;;;;48.55;19.58;;;;;;;;;;6292626;28;20072;-61
2022/10/21 02:31:04;;;;;;;52.45;20.80;;;;;;;;;;6285931;28;20055;-61
2022/10/21 02:34:29;;;;;;;53.17;20.98;;;;;;;;;;6282737;28;20058;-61
2022/10/21 02:37:48;;;;;;;48.50;18.90;;;;;;;;;;6282395;28;20082;-61
2022/10/21 02:40:53;;;;;;;49.47;18.85;;;;;;;;;;6282487;28;20131;-61
2022/10/21 02:43:58;;;;;;;51.00;19.58;;;;;;;;;;6286187;28;20496;-61
2022/10/21 02:46:58;;;;;;;53.38;20.70;;;;;;;;;;6283910;28;20148;-61
2022/10/21 02:49:59;;;;;;;52.08;21.05;;;;;;;;;;6287904;28;20048;-61
2022/10/21 02:52:59;;;;;;;54.08;19.85;;;;;;;;;;6286948;28;20048;-61
2022/10/21 02:56:00;;;;;;;53.63;20.60;;;;;;;;;;6286658;28;20080;-62
2022/10/21 02:59:01;;;;;;;52.33;20.88;;;;;;;;;;6291256;28;20079;-60
2022/10/21 03:02:01;;;;;;;51.80;21.90;;;;;;;;;;6285572;28;20048;-61
2022/10/21 03:05:02;;;;;;;47.38;20.35;;;;;;;;;;6294666;28;20130;-61
2022/10/21 03:08:03;;;;;;;53.88;21.92;;;;;;;;;;6288857;28;20501;-61
2022/10/21 03:11:04;;;;;;;53.55;21.30;;;;;;;;;;6288806;28;20056;-61
2022/10/21 03:14:04;;;;;;;53.60;21.42;;;;;;;;;;6290758;28;20062;-61
2022/10/21 03:17:05;;;;;;;53.33;21.77;;;;;;;;;;6292790;28;20465;-61
2022/10/21 03:20:06;;;;;;;53.58;21.67;;;;;;;;;;6289121;28;20110;-61
2022/10/21 03:23:07;;;;;;;54.35;20.85;;;;;;;;;;6292017;28;20122;-61
2022/10/21 03:26:07;;;;;;;60.63;21.77;;;;;;;;;;6292387;28;20052;-61
2022/10/21 03:29:08;;;;;;;53.67;22.23;;;;;;;;;;6288236;28;20048;-61
2022/10/21 03:32:08;;;;;;;50.17;20.67;;;;;;;;;;6292762;28;20786;-61
2022/10/21 03:35:09;;;;;;;53.22;20.95;;;;;;;;;;6288206;28;20079;-61
2022/10/21 03:38:09;;;;;;;53.95;21.67;;;;;;;;;;6287514;28;20543;-61
2022/10/21 03:41:10;;;;;;;58.03;22.20;;;;;;;;;;6288637;28;20415;-61
2022/10/21 03:44:10;;;;;;;57.33;22.10;;;;;;;;;;6287381;28;20044;-61
2022/10/21 03:47:11;;;;;;;54.80;20.20;;;;;;;;;;6288356;28;20064;-61
2022/10/21 03:50:11;;;;;;;55.90;21.50;;;;;;;;;;6291487;28;20044;-61
2022/10/21 03:53:12;;;;;;;51.08;21.10;;;;;;;;;;6288925;28;20049;-61
2022/10/21 03:56:12;;;;;;;49.85;20.33;;;;;;;;;;6289679;28;20045;-61
2022/10/21 03:59:13;;;;;;;50.78;20.25;;;;;;;;;;6291383;28;20048;-60
2022/10/21 04:02:14;;;;;;;52.33;22.10;;;;;;;;;;6290886;28;20143;-60
2022/10/21 04:05:15;;;;;;;55.53;22.45;;;;;;;;;;6294319;28;20044;-60
2022/10/21 04:08:15;;;;;;;52.58;22.42;;;;;;;;;;6285550;28;20052;-60
2022/10/21 04:11:16;;;;;;;55.75;21.80;;;;;;;;;;6291466;28;20446;-60
2022/10/21 04:14:16;;;;;;;57.95;22.65;;;;;;;;;;6290452;28;20051;-60
2022/10/21 04:17:17;;;;;;;59.80;21.95;;;;;;;;;;6292791;28;20053;-62
2022/10/21 04:20:18;;;;;;;58.67;23.73;;;;;;;;;;6292605;28;20048;-62
2022/10/21 04:23:18;;;;;;;67.82;24.35;;;;;;;;;;6287204;28;20126;-59
2022/10/21 04:26:19;;;;;;;65.60;24.50;;;;;;;;;;6291320;28;20472;-62
2022/10/21 04:29:19;;;;;;;72.88;25.48;;;;;;;;;;6289898;28;20754;-60
2022/10/21 04:32:20;;;;;;;68.50;24.85;;;;;;;;;;6291741;28;20052;-60
2022/10/21 04:35:21;;;;;;;64.10;24.85;;;;;;;;;;6287064;28;20055;-62
2022/10/21 04:38:22;;;;;;;68.47;23.98;;;;;;;;;;6289949;28;20484;-61
2022/10/21 04:41:22;;;;;;;60.00;24.33;;;;;;;;;;6288743;28;20048;-60
2022/10/21 04:44:23;;;;;;;74.82;26.92;;;;;;;;;;6290657;28;20079;-60
2022/10/21 04:47:23;;;;;;;67.05;27.48;;;;;;;;;;6289801;28;20041;-62
2022/10/21 04:50:24;;;;;;;69.90;25.90;;;;;;;;;;6288888;28;20521;-61
2022/10/21 04:53:25;;;;;;;93.45;35.13;;;;;;;;;;6287135;28;20040;-63
2022/10/21 04:56:25;;;;;;;77.53;30.67;;;;;;;;;;6285010;28;20078;-61
2022/10/21 04:59:26;;;;;;;79.28;29.17;;;;;;;;;;6287439;28;20052;-61
2022/10/21 05:02:26;;;;;;;70.25;24.88;;;;;;;;;;6280953;28;20052;-62
2022/10/21 05:05:27;;;;;;;76.97;28.55;;;;;;;;;;6290651;28;20106;-61
2022/10/21 05:08:28;;;;;;;63.40;23.98;;;;;;;;;;6284187;28;20254;-62
2022/10/21 05:11:29;;;;;;;60.15;24.02;;;;;;;;;;6287175;28;20043;-60
2022/10/21 05:14:29;;;;;;;79.05;29.65;;;;;;;;;;6286567;28;20695;-60
2022/10/21 05:17:30;;;;;;;74.35;29.20;;;;;;;;;;6285410;28;20054;-62
2022/10/21 05:20:31;;;;;;;102.90;35.30;;;;;;;;;;6290759;28;20052;-61
2022/10/21 05:23:31;;;;;;;73.43;28.70;;;;;;;;;;6286261;28;20131;-61
2022/10/21 05:26:32;;;;;;;75.35;29.02;;;;;;;;;;6285930;28;20048;-61
2022/10/21 05:29:32;;;;;;;74.10;27.88;;;;;;;;;;6287010;28;20471;-61
2022/10/21 05:32:33;;;;;;;65.95;25.85;;;;;;;;;;6287049;28;20384;-61
2022/10/21 05:35:33;;;;;;;65.07;25.83;;;;;;;;;;6289372;28;20332;-61
2022/10/21 05:38:34;;;;;;;68.53;26.98;;;;;;;;;;6285885;28;20040;-61
2022/10/21 05:41:35;;;;;;;80.93;31.33;;;;;;;;;;6283658;28;20151;-61
2022/10/21 05:44:36;;;;;;;70.93;29.25;;;;;;;;;;6286292;28;20103;-60
2022/10/21 05:47:39;;;;;;;72.70;27.30;;;;;;;;;;6282273;28;20591;-61
2022/10/21 05:50:40;;;;;;;67.47;25.52;;;;;;;;;;6285399;28;20418;-61
2022/10/21 05:53:40;;;;;;;70.55;26.88;;;;;;;;;;6284225;28;20133;-62
2022/10/21 05:56:41;;;;;;;74.85;28.10;;;;;;;;;;6282970;28;20093;-61
2022/10/21 05:59:42;;;;;;;77.35;28.75;;;;;;;;;;6283785;28;20155;-62
2022/10/21 06:02:42;;;;;;;86.13;32.28;;;;;;;;;;6286374;28;20517;-61
2022/10/21 06:05:43;;;;;;;77.47;29.02;;;;;;;;;;6284862;28;20161;-62
2022/10/21 06:08:43;;;;;;;87.60;32.92;;;;;;;;;;6283261;28;20146;-61
2022/10/21 06:11:44;;;;;;;75.63;29.90;;;;;;;;;;6281886;28;20041;-61
2022/10/21 06:14:44;;;;;;;66.72;27.92;;;;;;;;;;6285845;28;20502;-62
2022/10/21 06:17:45;;;;;;;70.97;29.23;;;;;;;;;;6282074;28;20049;-61
2022/10/21 06:20:45;;;;;;;91.72;36.13;;;;;;;;;;6283664;28;20040;-61
2022/10/21 06:23:46;;;;;;;82.85;33.42;;;;;;;;;;6281864;28;20048;-62
2022/10/21 06:26:49;;;;;;;82.78;34.03;;;;;;;;;;6285941;28;20049;-62
2022/10/21 06:29:50;;;;;;;84.85;32.75;;;;;;;;;;6283630;28;20043;-62
2022/10/21 06:32:50;;;;;;;93.97;39.78;;;;;;;;;;6283279;28;20040;-62
2022/10/21 06:35:51;;;;;;;117.72;47.22;;;;;;;;;;6284572;28;20182;-62
2022/10/21 06:38:51;;;;;;;120.97;47.60;;;;;;;;;;6271701;28;250075;-62
2022/10/21 06:41:52;;;;;;;122.70;50.25;;;;;;;;;;6282023;28;20098;-61
2022/10/21 06:44:52;;;;;;;114.75;45.97;;;;;;;;;;6292122;28;20071;-62
2022/10/21 06:47:53;;;;;;;112.68;43.60;;;;;;;;;;6287432;28;20767;-61
2022/10/21 06:50:57;;;;;;;112.78;43.08;;;;;;;;;;6289636;28;20048;-61
2022/10/21 06:53:58;;;;;;;131.38;49.00;;;;;;;;;;6288829;28;20185;-62
2022/10/21 06:56:59;;;;;;;142.32;51.80;;;;;;;;;;6285636;28;20057;-62
2022/10/21 06:59:59;;;;;;;131.70;49.10;;;;;;;;;;6289084;28;20535;-62
2022/10/21 07:03:00;;;;;;;154.45;57.53;;;;;;;;;;6287754;28;20044;-62
2022/10/21 07:06:01;;;;;;;175.63;61.72;;;;;;;;;;6289591;28;20055;-62
2022/10/21 07:09:03;;;;;;;173.52;66.25;;;;;;;;;;6287764;28;20075;-61
2022/10/21 07:12:04;;;;;;;157.45;60.40;;;;;;;;;;6290432;28;20075;-62
2022/10/21 07:15:05;;;;;;;192.30;70.85;;;;;;;;;;6288426;28;20045;-61
2022/10/21 07:18:05;;;;;;;188.38;66.72;;;;;;;;;;6286464;28;20049;-62
2022/10/21 07:21:09;;;;;;;165.20;60.00;;;;;;;;;;6288865;28;20992;-62
2022/10/21 07:24:09;;;;;;;162.30;58.88;;;;;;;;;;6288187;28;20176;-61
2022/10/21 07:27:10;;;;;;;173.85;63.30;;;;;;;;;;6285583;28;20479;-62
2022/10/21 07:30:10;;;;;;;172.75;64.75;;;;;;;;;;6288046;28;20040;-62
2022/10/21 07:33:11;;;;;;;159.43;61.92;;;;;;;;;;6289326;28;20040;-62
2022/10/21 07:36:19;;;;;;;156.32;54.95;;;;;;;;;;6294044;28;20047;-62
2022/10/21 07:39:22;;;;;;;149.30;55.47;;;;;;;;;;6293037;28;20142;-62
2022/10/21 07:42:23;;;;;;;139.05;52.25;;;;;;;;;;6294632;28;20049;-62
2022/10/21 07:45:24;;;;;;;163.68;57.50;;;;;;;;;;6290588;28;20617;-62
2022/10/21 07:48:25;;;;;;;248.60;83.68;;;;;;;;;;6285915;28;20094;-62
2022/10/21 07:51:26;;;;;;;174.30;61.85;;;;;;;;;;6287464;28;20048;-63
2022/10/21 07:54:26;;;;;;;134.05;51.67;;;;;;;;;;6287483;28;20078;-62
2022/10/21 07:57:27;;;;;;;139.07;51.13;;;;;;;;;;6284213;28;20044;-62
2022/10/21 08:00:27;;;;;;;142.73;49.10;;;;;;;;;;6287121;28;20089;-62
2022/10/21 08:03:28;;;;;;;123.93;44.38;;;;;;;;;;6287183;28;20048;-62
2022/10/21 08:06:28;;;;;;;105.97;41.63;;;;;;;;;;6289237;28;20495;-62
2022/10/21 08:09:29;;;;;;;112.93;43.03;;;;;;;;;;6289086;28;20047;-62
2022/10/21 08:12:30;;;;;;;105.88;39.78;;;;;;;;;;6288541;28;20072;-62
2022/10/21 08:15:30;;;;;;;113.95;41.53;;;;;;;;;;6287823;28;20044;-63
2022/10/21 08:18:31;;;;;;;111.95;41.63;;;;;;;;;;6284739;28;20759;-63
2022/10/21 08:21:32;;;;;;;117.82;41.83;;;;;;;;;;6287441;28;20041;-63
2022/10/21 08:24:35;;;;;;;111.15;44.13;;;;;;;;;;6283012;28;20487;-62
2022/10/21 08:27:35;;;;;;;123.03;44.00;;;;;;;;;;6287538;28;20117;-62
2022/10/21 08:30:36;;;;;;;133.63;48.00;;;;;;;;;;6286228;28;20048;-62
2022/10/21 08:33:37;;;;;;;124.13;48.90;;;;;;;;;;6286372;28;20071;-63
2022/10/21 08:36:38;;;;;;;119.45;47.72;;;;;;;;;;6284532;28;20392;-62
2022/10/21 08:39:38;;;;;;;121.97;47.80;;;;;;;;;;6281704;28;20084;-62
2022/10/21 08:42:41;;;;;;;130.98;46.35;;;;;;;;;;6286386;28;20102;-62
2022/10/21 08:45:47;;;;;;;119.38;45.78;;;;;;;;;;6286224;28;20098;-62
2022/10/21 08:49:03;;;;;;;124.97;46.97;;;;;;;;;;6283802;28;20531;-62
2022/10/21 08:52:11;;;;;;;123.45;46.58;;;;;;;;;;6285995;28;20398;-62
2022/10/21 08:55:17;;;;;;;127.18;46.65;;;;;;;;;;6288441;28;20055;-62
2022/10/21 08:58:21;;;;;;;129.43;44.97;;;;;;;;;;6287360;28;20125;-62
2022/10/21 09:01:30;;;;;;;105.70;41.28;;;;;;;;;;6284962;28;20071;-62
2022/10/21 09:04:50;;;;;;;109.45;42.83;;;;;;;;;;6288389;28;20139;-63
2022/10/21 09:08:14;;;;;;;119.60;45.38;;;;;;;;;;6288840;28;20502;-62
2022/10/21 09:11:26;;;;;;;116.75;42.72;;;;;;;;;;6286682;28;20098;-62
2022/10/21 09:14:56;;;;;;;107.40;43.20;;;;;;;;;;6284242;28;20044;-62
2022/10/21 09:18:35;;;;;;;101.07;39.88;;;;;;;;;;6286153;28;20626;-63
2022/10/21 09:21:54;;;;;;;102.18;38.47;;;;;;;;;;6207227;28;20124;-62
2022/10/21 09:25:01;;;;;;;99.22;40.40;;;;;;;;;;6289438;28;20055;-62
2022/10/21 09:28:10;;;;;;;113.85;42.25;;;;;;;;;;6288009;28;20139;-61
2022/10/21 09:31:17;;;;;;;106.93;41.63;;;;;;;;;;6285464;28;20384;-62
2022/10/21 09:34:36;;;;;;;113.05;41.63;;;;;;;;;;6286338;28;20509;-62
2022/10/21 09:37:54;;;;;;;107.05;39.08;;;;;;;;;;6285367;28;20044;-61
2022/10/21 09:41:01;;;;;;;93.88;35.53;;;;;;;;;;6282660;28;20055;-62
2022/10/21 09:44:02;;;;;;;94.55;38.47;;;;;;;;;;6283045;28;20052;-62
2022/10/21 09:47:17;;;;;;;103.63;42.65;;;;;;;;;;6284842;28;20055;-62
2022/10/21 09:50:18;;;;;;;100.38;42.03;;;;;;;;;;6286825;28;20044;-62
2022/10/21 09:53:27;;;;;;;105.97;42.10;;;;;;;;;;6283772;28;20511;-62
2022/10/21 09:56:48;;;;;;;100.03;39.17;;;;;;;;;;6286076;28;20051;-62
2022/10/21 09:59:55;;;;;;;87.03;35.22;;;;;;;;;;6286460;28;20070;-62
2022/10/21 10:02:55;;;;;;;86.03;34.08;;;;;;;;;;6283132;28;20051;-62
2022/10/21 10:05:56;;;;;;;94.57;35.10;;;;;;;;;;6284974;28;20070;-62
2022/10/21 10:09:05;;;;;;;84.10;31.25;;;;;;;;;;6286078;28;20056;-62
2022/10/21 10:12:20;;;;;;;82.60;31.40;;;;;;;;;;6285976;28;20128;-62
2022/10/21 10:15:24;;;;;;;88.32;32.67;;;;;;;;;;6282043;28;20124;-62
2022/10/21 10:18:25;;;;;;;82.38;31.08;;;;;;;;;;6282715;28;20051;-61
2022/10/21 10:21:25;;;;;;;84.65;31.50;;;;;;;;;;6285839;28;20052;-62
2022/10/21 10:24:26;;;;;;;84.40;30.08;;;;;;;;;;6284182;28;20091;-62
2022/10/21 10:27:27;;;;;;;81.07;29.17;;;;;;;;;;6282677;28;20417;-63
2022/10/21 10:30:37;;;;;;;83.50;28.45;;;;;;;;;;6285337;28;20502;-63
2022/10/21 10:33:37;;;;;;;75.88;26.67;;;;;;;;;;6283816;28;20067;-62
2022/10/21 10:36:39;;;;;;;76.18;27.52;;;;;;;;;;6280685;28;20451;-63
2022/10/21 10:39:41;;;;;;;62.42;24.10;;;;;;;;;;6284844;28;20453;-62
2022/10/21 10:42:45;;;;;;;79.35;27.83;;;;;;;;;;6283784;28;20052;-63
2022/10/21 10:46:13;;;;;;;69.70;25.98;;;;;;;;;;6285350;28;20045;-64
2022/10/21 10:49:13;;;;;;;57.85;22.80;;;;;;;;;;6264816;28;20049;-63
2022/10/21 10:52:20;;;;;;;49.75;19.83;;;;;;;;;;6285173;28;20066;-62
2022/10/21 10:55:21;;;;;;;65.00;22.65;;;;;;;;;;6285694;28;20063;-63
2022/10/21 10:58:25;;;;;;;66.70;22.92;;;;;;;;;;6283062;28;20045;-63
2022/10/21 11:01:31;;;;;;;79.07;28.80;;;;;;;;;;6284828;28;20128;-64
2022/10/21 11:04:45;;;;;;;75.57;27.92;;;;;;;;;;6286166;28;20045;-62
2022/10/21 11:07:56;;;;;;;69.65;25.48;;;;;;;;;;6284869;28;20128;-63
2022/10/21 11:11:01;;;;;;;65.82;25.20;;;;;;;;;;6284526;28;20037;-62
2022/10/21 11:14:02;;;;;;;114.32;37.80;;;;;;;;;;6286241;28;20142;-62
2022/10/21 11:17:14;;;;;;;72.72;29.27;;;;;;;;;;6287157;28;20491;-63
2022/10/21 11:20:40;;;;;;;64.45;24.13;;;;;;;;;;6287607;28;20044;-63
2022/10/21 11:24:11;;;;;;;58.95;22.52;;;;;;;;;;6282287;28;20055;-63
2022/10/21 11:27:24;;;;;;;62.25;22.50;;;;;;;;;;6288006;28;20119;-63
2022/10/21 11:30:40;;;;;;;53.92;20.70;;;;;;;;;;6288504;28;20047;-62
2022/10/21 11:34:17;;;;;;;52.65;20.27;;;;;;;;;;6291817;28;20513;-63
2022/10/21 11:37:38;;;;;;;51.78;19.88;;;;;;;;;;6292667;28;20040;-63
2022/10/21 11:40:40;;;;;;;53.00;20.65;;;;;;;;;;6292862;28;20529;-63
2022/10/21 11:44:11;;;;;;;49.05;20.75;;;;;;;;;;6289796;28;20048;-63
2022/10/21 11:47:44;;;;;;;61.53;21.70;;;;;;;;;;6287731;28;20139;-63
2022/10/21 11:51:13;;;;;;;48.17;20.73;;;;;;;;;;6289139;28;20116;-63
2022/10/21 11:54:43;;;;;;;51.50;20.23;;;;;;;;;;6290266;28;20694;-63
2022/10/21 11:58:16;;;;;;;43.22;19.05;;;;;;;;;;6294432;28;20044;-63
2022/10/21 12:01:22;;;;;;;49.25;18.67;;;;;;;;;;6295798;28;20433;-63
2022/10/21 12:04:48;;;;;;;53.53;20.48;;;;;;;;;;6294783;28;20048;-63
2022/10/21 12:08:12;;;;;;;61.72;22.27;;;;;;;;;;6291182;28;20077;-63
2022/10/21 12:11:19;;;;;;;48.70;20.45;;;;;;;;;;6285932;28;21465;-63
2022/10/21 12:14:28;;;;;;;46.00;18.23;;;;;;;;;;6289640;28;20143;-63
2022/10/21 12:17:33;;;;;;;49.25;19.80;;;;;;;;;;6287338;28;20051;-63
2022/10/21 12:20:33;;;;;;;51.63;20.02;;;;;;;;;;6287152;28;20044;-64
2022/10/21 12:23:34;;;;;;;43.33;18.95;;;;;;;;;;6286891;28;20057;-63
2022/10/21 12:27:16;;;;;;;45.72;18.23;;;;;;;;;;6286952;28;20414;-64
2022/10/21 12:30:24;;;;;;;51.67;19.52;;;;;;;;;;6284608;28;20449;-63
2022/10/21 12:33:46;;;;;;;47.53;18.80;;;;;;;;;;6284084;28;20067;-64
2022/10/21 12:36:49;;;;;;;45.63;18.23;;;;;;;;;;6283167;28;20111;-63
2022/10/21 12:40:28;;;;;;;48.47;19.33;;;;;;;;;;6286279;28;20182;-64
2022/10/21 12:43:29;;;;;;;50.47;21.80;;;;;;;;;;6280304;28;22241;-63
2022/10/21 12:46:37;;;;;;;49.80;20.13;;;;;;;;;;6288667;28;20493;-65
2022/10/21 12:49:42;;;;;;;47.25;20.48;;;;;;;;;;6287430;28;20143;-63
2022/10/21 12:52:44;;;;;;;47.85;19.85;;;;;;;;;;6271003;28;20059;-63
2022/10/21 12:55:50;;;;;;;48.17;19.77;;;;;;;;;;6268533;28;20048;-64
2022/10/21 12:58:56;;;;;;;51.42;21.90;;;;;;;;;;6264660;28;20048;-63
2022/10/21 13:02:06;;;;;;;48.20;22.95;;;;;;;;;;6266838;28;20143;-63
2022/10/21 13:05:07;;;;;;;55.22;23.13;;;;;;;;;;6268073;28;20053;-63
2022/10/21 13:08:14;;;;;;;98.55;40.45;;;;;;;;;;6263161;28;20503;-60
2022/10/21 13:11:21;;;;;;;107.68;45.33;;;;;;;;;;6264833;28;20055;-61
2022/10/21 13:14:28;;;;;;;87.70;32.95;;;;;;;;;;6266293;28;20049;-61
2022/10/21 13:17:32;;;;;;;67.82;24.30;;;;;;;;;;6263380;28;20523;-61
2022/10/21 13:20:37;;;;;;;64.18;25.52;;;;;;;;;;6262572;28;20045;-61
2022/10/21 13:23:42;;;;;;;49.80;19.95;;;;;;;;;;6262102;28;20076;-61
2022/10/21 13:26:50;;;;;;;49.22;19.55;;;;;;;;;;6266270;28;20130;-61
2022/10/21 13:29:51;;;;;;;50.47;19.05;;;;;;;;;;6263918;28;20139;-61
2022/10/21 13:33:13;;;;;;;50.10;20.05;;;;;;;;;;6262515;28;20179;-61
2022/10/21 13:36:13;;;;;;;54.08;19.42;;;;;;;;;;6267454;28;20044;-61
2022/10/21 13:39:20;;;;;;;46.05;19.20;;;;;;;;;;6265818;28;20056;-61
2022/10/21 13:42:21;;;;;;;49.45;20.55;;;;;;;;;;6263280;28;20586;-61
2022/10/21 13:45:29;;;;;;;51.45;20.17;;;;;;;;;;6266472;28;20048;-61
2022/10/21 13:48:30;;;;;;;46.15;18.77;;;;;;;;;;6266633;28;20052;-61
2022/10/21 13:51:33;;;;;;;46.63;19.67;;;;;;;;;;6265577;28;20071;-61
2022/10/21 13:54:34;;;;;;;51.72;21.05;;;;;;;;;;6264324;28;20155;-62
2022/10/21 13:57:35;;;;;;;54.53;21.15;;;;;;;;;;6265488;28;20481;-61
2022/10/21 14:00:36;;;;;;;59.60;23.93;;;;;;;;;;6266302;28;20129;-61
2022/10/21 14:03:37;;;;;;;55.55;24.17;;;;;;;;;;6260802;28;20052;-60
2022/10/21 14:06:43;;;;;;;58.90;21.88;;;;;;;;;;6266105;28;20040;-60
2022/10/21 14:09:46;;;;;;;60.45;25.02;;;;;;;;;;6264502;28;20411;-61
2022/10/21 14:12:48;;;;;;;63.92;26.23;;;;;;;;;;6262951;28;20083;-60
2022/10/21 14:15:50;;;;;;;67.22;27.02;;;;;;;;;;6266194;28;20431;-61
2022/10/21 14:18:52;;;;;;;74.25;28.17;;;;;;;;;;6268884;28;20048;-60
2022/10/21 14:21:53;;;;;;;;;;;;;;;;;;6265743;28;20052;-61
2022/10/21 14:24:57;;;;;;;73.10;26.70;;;;;;;;;;6262916;28;19962;-60
2022/10/21 14:27:59;;;;;;;73.53;26.88;;;;;;;;;;6266755;28;20163;-61
2022/10/21 14:31:00;;;;;;;;;;;;;;;;;;6268935;28;20057;-61
2022/10/21 14:34:00;;;;;;;77.70;28.55;;;;;;;;;;6265448;28;19938;-61
2022/10/21 14:37:17;;;;;;;83.93;30.38;;;;;;;;;;6266064;28;20110;-61
2022/10/21 14:40:20;;;;;;;82.03;32.78;;;;;;;;;;6266612;28;20171;-62
2022/10/21 14:43:34;;;;;;;72.30;29.40;;;;;;;;;;6264972;28;20080;-61
2022/10/21 14:46:42;;;;;;;70.25;28.10;;;;;;;;;;6266084;28;20515;-60
2022/10/21 14:49:47;;;;;;;76.32;29.75;;;;;;;;;;6265851;28;20075;-61
2022/10/21 14:52:49;;;;;;;71.95;28.52;;;;;;;;;;6259084;28;20056;-61
2022/10/21 14:55:56;;;;;;;73.25;29.60;;;;;;;;;;6262861;28;20051;-62
2022/10/21 14:58:59;;;;;;;72.80;28.60;;;;;;;;;;6263110;28;20052;-61
2022/10/21 15:02:02;;;;;;;74.35;29.00;;;;;;;;;;6268234;28;20061;-62
2022/10/21 15:05:24;;;;;;;59.83;23.02;;;;;;;;;;6272436;28;20062;-62
2022/10/21 15:08:30;;;;;;;61.55;25.25;;;;;;;;;;6269507;28;20475;-61
2022/10/21 15:11:38;;;;;;;64.07;27.50;;;;;;;;;;6271220;28;20044;-62
2022/10/21 15:14:38;;;;;;;64.95;27.13;;;;;;;;;;6270382;28;20150;-64
2022/10/21 15:17:39;;;;;;;57.67;25.30;;;;;;;;;;6274107;28;20045;-62
2022/10/21 15:20:51;;;;;;;66.80;26.40;;;;;;;;;;6268094;28;20705;-62
2022/10/21 15:23:56;;;;;;;60.50;25.73;;;;;;;;;;6273078;28;20048;-61
2022/10/21 15:26:58;;;;;;;73.00;27.73;;;;;;;;;;6275232;28;20117;-62
2022/10/21 15:30:03;;;;;;;;;;;;;;;;;;6273109;28;20060;-62
2022/10/21 15:33:10;;;;;;;61.25;24.30;;;;;;;;;;6269912;28;20646;-62
2022/10/21 15:36:11;;;;;;;62.00;23.02;;;;;;;;;;6274447;28;20484;-61
2022/10/21 15:39:12;;;;;;;56.13;23.25;;;;;;;;;;6272082;28;20080;-62
2022/10/21 15:42:15;;;;;;;62.33;26.25;;;;;;;;;;6269791;28;20040;-62
2022/10/21 15:45:20;;;;;;;57.10;23.00;;;;;;;;;;6273576;28;20595;-62
2022/10/21 15:48:22;;;;;;;47.33;18.92;;;;;;;;;;6274524;28;20091;-62
2022/10/21 15:51:22;;;;;;;39.05;15.65;;;;;;;;;;6272075;28;20049;-61
2022/10/21 15:54:23;;;;;;;33.45;14.88;;;;;;;;;;6274528;28;20468;-62
2022/10/21 15:57:24;;;;;;;29.80;13.70;;;;;;;;;;6274207;28;20930;-62
2022/10/21 16:00:24;;;;;;;30.58;13.07;;;;;;;;;;6272414;28;20063;-61
2022/10/21 16:03:26;;;;;;;29.02;11.77;;;;;;;;;;6270396;28;20080;-62
2022/10/21 16:06:27;;;;;;;30.48;13.15;;;;;;;;;;6270276;28;21428;-62
2022/10/21 16:09:28;;;;;;;35.67;13.32;;;;;;;;;;6268743;28;20171;-62
2022/10/21 16:12:29;;;;;;;42.70;13.50;;;;;;;;;;6264980;28;20082;-59
2022/10/21 16:15:30;;;;;;;28.93;13.67;;;;;;;;;;6271424;28;20870;-62
2022/10/21 16:18:30;;;;;;;45.75;16.70;;;;;;;;;;6266602;28;20048;-62
2022/10/21 16:21:31;;;;;;;44.88;21.00;;;;;;;;;;6263053;28;20115;-61
2022/10/21 16:24:32;;;;;;;42.92;18.42;;;;;;;;;;6270180;28;20122;-62
2022/10/21 16:27:33;;;;;;;44.20;17.77;;;;;;;;;;6269833;28;20139;-62
2022/10/21 16:30:35;;;;;;;55.53;24.40;;;;;;;;;;6265963;28;20592;-62
2022/10/21 16:33:36;;;;;;;61.15;27.52;;;;;;;;;;6267364;28;20746;-62
2022/10/21 16:36:37;;;;;;;42.63;18.23;;;;;;;;;;6269286;28;20053;-62
2022/10/21 16:39:37;;;;;;;40.90;18.33;;;;;;;;;;6269328;28;20059;-61
2022/10/21 16:42:38;;;;;;;40.40;17.63;;;;;;;;;;6265822;28;20056;-62
2022/10/21 16:45:40;;;;;;;41.20;17.63;;;;;;;;;;6269264;28;20052;-61
2022/10/21 16:48:42;;;;;;;39.53;16.17;;;;;;;;;;6268300;28;20052;-62
2022/10/21 16:51:46;;;;;;;44.47;17.88;;;;;;;;;;6263176;28;20049;-62
2022/10/21 16:54:47;;;;;;;36.33;14.88;;;;;;;;;;6267497;28;20086;-61
2022/10/21 16:57:47;;;;;;;38.17;14.55;;;;;;;;;;6264852;28;20044;-62
2022/10/21 17:00:48;;;;;;;35.33;14.52;;;;;;;;;;6268128;28;21345;-62
2022/10/21 17:03:50;;;;;;;35.92;15.30;;;;;;;;;;6266919;28;20782;-63
2022/10/21 17:06:50;;;;;;;37.10;16.00;;;;;;;;;;6268222;28;20578;-61
2022/10/21 17:09:51;;;;;;;37.05;15.23;;;;;;;;;;6274229;28;20144;-62
2022/10/21 17:12:57;;;;;;;45.67;17.75;;;;;;;;;;6267858;28;20127;-62
2022/10/21 17:15:58;;;;;;;41.15;17.02;;;;;;;;;;6278524;28;20072;-62
2022/10/21 17:18:58;;;;;;;39.40;16.48;;;;;;;;;;6273469;28;20130;-62
2022/10/21 17:21:59;;;;;;;49.40;21.00;;;;;;;;;;6271245;28;20080;-61
2022/10/21 17:25:00;;;;;;;63.78;28.33;;;;;;;;;;6272074;28;20087;-61
2022/10/21 17:28:00;;;;;;;77.35;34.38;;;;;;;;;;6269646;28;20054;-61
2022/10/21 17:31:01;;;;;;;41.42;18.10;;;;;;;;;;6268739;28;20493;-61
2022/10/21 17:34:06;;;;;;;46.63;17.90;;;;;;;;;;6264913;28;20084;-63
2022/10/21 17:37:08;;;;;;;49.47;20.20;;;;;;;;;;6271520;28;21400;-61
2022/10/21 17:40:13;;;;;;;48.97;21.65;;;;;;;;;;6265110;28;20102;-61
2022/10/21 17:43:13;;;;;;;56.63;24.17;;;;;;;;;;6268515;28;20049;-61
2022/10/21 17:46:20;;;;;;;75.38;29.70;;;;;;;;;;6271649;28;20058;-61
2022/10/21 17:49:22;;;;;;;136.90;71.78;;;;;;;;;;6273432;28;20506;-61
2022/10/21 17:52:23;;;;;;;54.30;21.15;;;;;;;;;;6262432;28;20123;-61
2022/10/21 17:55:23;;;;;;;56.42;27.73;;;;;;;;;;6268579;28;20060;-62